createdAt,value
2023-04-02T00:00:26.389Z,19.14
2023-04-02T00:01:26.412Z,19.14
2023-04-02T00:02:26.541Z,19.14
2023-04-02T00:03:26.530Z,19.14
2023-04-02T00:04:26.539Z,19.13
2023-04-02T00:05:26.578Z,19.14
2023-04-02T00:06:26.601Z,19.13
2023-04-02T00:07:26.642Z,19.13
2023-04-02T00:08:26.683Z,19.13
2023-04-02T00:09:26.706Z,19.13
2023-04-02T00:10:26.756Z,19.13
2023-04-02T00:11:26.766Z,19.12
2023-04-02T00:12:26.818Z,19.12
2023-04-02T00:13:26.842Z,19.13
2023-04-02T00:14:26.881Z,19.12
2023-04-02T00:15:26.925Z,19.11
2023-04-02T00:16:27.036Z,19.12
2023-04-02T00:17:26.993Z,19.11
2023-04-02T00:18:27.087Z,19.11
2023-04-02T00:19:27.072Z,19.12
2023-04-02T00:20:27.099Z,19.11
2023-04-02T00:21:27.137Z,19.11
2023-04-02T00:22:27.189Z,19.11
2023-04-02T00:23:27.229Z,19.11
2023-04-02T00:24:27.257Z,19.11
2023-04-02T00:25:27.302Z,19.11
2023-04-02T00:26:27.332Z,19.10
2023-04-02T00:27:27.376Z,19.11
2023-04-02T00:28:27.427Z,19.11
2023-04-02T00:29:27.469Z,19.11
2023-04-02T00:30:27.502Z,19.10
2023-04-02T00:31:27.547Z,19.11
2023-04-02T00:32:27.687Z,19.11
2023-04-02T00:33:27.605Z,19.09
2023-04-02T00:34:27.650Z,19.10
2023-04-02T00:35:27.677Z,19.09
2023-04-02T00:36:27.714Z,19.10
2023-04-02T00:37:27.754Z,19.10
2023-04-02T00:38:27.796Z,19.10
2023-04-02T00:39:27.839Z,19.09
2023-04-02T00:40:27.892Z,19.10
2023-04-02T00:41:27.931Z,19.08
2023-04-02T00:42:27.983Z,19.08
2023-04-02T00:43:28.013Z,19.09
2023-04-02T00:44:28.076Z,19.09
2023-04-02T00:45:28.111Z,19.08
2023-04-02T00:46:28.286Z,19.08
2023-04-02T00:47:28.247Z,19.08
2023-04-02T00:48:28.251Z,19.08
2023-04-02T00:49:28.291Z,19.09
2023-04-02T00:50:28.335Z,19.08
2023-04-02T00:51:28.386Z,19.08
2023-04-02T00:52:28.436Z,19.08
2023-04-02T00:53:28.504Z,19.08
2023-04-02T00:54:28.522Z,19.08
2023-04-02T00:55:28.580Z,19.08
2023-04-02T00:56:28.599Z,19.08
2023-04-02T00:57:28.709Z,19.07
2023-04-02T00:58:28.696Z,19.08
2023-04-02T00:59:28.753Z,19.08
2023-04-02T01:00:28.795Z,19.07
2023-04-02T01:01:28.871Z,19.07
2023-04-02T01:02:28.935Z,19.07
2023-04-02T01:03:29.175Z,19.07
2023-04-02T01:04:28.978Z,19.07
2023-04-02T01:05:29.024Z,19.08
2023-04-02T01:06:29.071Z,19.07
2023-04-02T01:07:29.111Z,19.07
2023-04-02T01:08:29.151Z,19.06
2023-04-02T01:09:29.206Z,19.06
2023-04-02T01:10:29.252Z,19.06
2023-04-02T01:11:29.296Z,19.06
2023-04-02T01:12:29.342Z,19.06
2023-04-02T01:13:29.388Z,19.05
2023-04-02T01:14:29.447Z,19.06
2023-04-02T01:15:29.559Z,19.06
2023-04-02T01:16:29.591Z,19.05
2023-04-02T01:17:29.591Z,19.06
2023-04-02T01:18:29.631Z,19.05
2023-04-02T01:19:29.669Z,19.05
2023-04-02T01:20:29.722Z,19.05
2023-04-02T01:21:29.762Z,19.06
2023-04-02T01:22:29.815Z,19.05
2023-04-02T01:23:29.859Z,19.06
2023-04-02T01:24:29.911Z,19.05
2023-04-02T01:25:29.953Z,19.05
2023-04-02T01:26:30.008Z,19.05
2023-04-02T01:27:30.066Z,19.05
2023-04-02T01:28:30.103Z,19.05
2023-04-02T01:29:30.156Z,19.05
2023-04-02T01:30:30.199Z,19.04
2023-04-02T01:31:30.281Z,19.04
2023-04-02T01:32:30.336Z,19.05
2023-04-02T01:33:30.352Z,19.05
2023-04-02T01:34:30.389Z,19.04
2023-04-02T01:35:30.434Z,19.04
2023-04-02T01:36:30.489Z,19.04
2023-04-02T01:37:30.550Z,19.04
2023-04-02T01:38:30.579Z,19.04
2023-04-02T01:39:30.619Z,19.04
2023-04-02T01:40:30.674Z,19.04
2023-04-02T01:41:30.719Z,19.04
2023-04-02T01:42:30.771Z,19.03
2023-04-02T01:43:30.814Z,19.03
2023-04-02T01:44:30.873Z,19.03
2023-04-02T01:45:30.899Z,19.03
2023-04-02T01:46:30.981Z,19.02
2023-04-02T01:47:31.073Z,19.03
2023-04-02T01:48:31.077Z,19.03
2023-04-02T01:49:31.103Z,19.03
2023-04-02T01:50:31.156Z,19.03
2023-04-02T01:51:31.207Z,19.03
2023-04-02T01:52:31.257Z,19.03
2023-04-02T01:53:31.298Z,19.02
2023-04-02T01:54:31.359Z,19.02
2023-04-02T01:55:31.447Z,19.02
2023-04-02T01:56:31.466Z,19.03
2023-04-02T01:57:31.527Z,19.02
2023-04-02T01:58:31.621Z,19.02
2023-04-02T01:59:31.600Z,19.02
2023-04-02T02:00:31.669Z,19.01
2023-04-02T02:01:31.700Z,19.01
2023-04-02T02:02:31.819Z,19.02
2023-04-02T02:03:31.781Z,19.01
2023-04-02T02:04:31.850Z,19.01
2023-04-02T02:05:31.964Z,19.02
2023-04-02T02:06:31.942Z,19.01
2023-04-02T02:07:31.998Z,19.01
2023-04-02T02:08:32.048Z,19.01
2023-04-02T02:09:32.109Z,19.01
2023-04-02T02:10:32.158Z,19.02
2023-04-02T02:11:32.212Z,19.01
2023-04-02T02:12:32.261Z,19.01
2023-04-02T02:13:32.324Z,19.01
2023-04-02T02:14:32.384Z,19.01
2023-04-02T02:15:32.632Z,19.01
2023-04-02T02:16:32.487Z,19.00
2023-04-02T02:17:32.540Z,19.01
2023-04-02T02:18:32.601Z,19.00
2023-04-02T02:19:32.655Z,19.00
2023-04-02T02:20:32.705Z,19.01
2023-04-02T02:21:32.765Z,19.00
2023-04-02T02:22:32.819Z,19.00
2023-04-02T02:23:32.882Z,19.00
2023-04-02T02:24:32.919Z,19.00
2023-04-02T02:25:33.368Z,19.00
2023-04-02T02:26:33.030Z,19.00
2023-04-02T02:27:33.079Z,19.00
2023-04-02T02:28:33.138Z,19.00
2023-04-02T02:29:33.174Z,18.99
2023-04-02T02:30:33.234Z,18.99
2023-04-02T02:31:33.362Z,18.99
2023-04-02T02:32:33.361Z,18.99
2023-04-02T02:33:33.381Z,18.99
2023-04-02T02:34:33.442Z,18.98
2023-04-02T02:35:33.888Z,18.99
2023-04-02T02:36:33.580Z,18.99
2023-04-02T02:37:33.621Z,18.99
2023-04-02T02:38:33.655Z,18.99
2023-04-02T02:39:33.719Z,18.98
2023-04-02T02:40:33.770Z,18.99
2023-04-02T02:41:33.823Z,18.98
2023-04-02T02:42:33.865Z,18.99
2023-04-02T02:43:33.921Z,18.98
2023-04-02T02:44:33.978Z,18.98
2023-04-02T02:45:34.345Z,18.98
2023-04-02T02:46:34.102Z,18.98
2023-04-02T02:47:34.182Z,18.98
2023-04-02T02:48:34.207Z,18.97
2023-04-02T02:49:34.270Z,18.98
2023-04-02T02:50:34.343Z,18.98
2023-04-02T02:51:34.389Z,18.98
2023-04-02T02:52:34.470Z,18.97
2023-04-02T02:53:34.512Z,18.97
2023-04-02T02:54:34.574Z,18.97
2023-04-02T02:55:34.747Z,18.97
2023-04-02T02:56:34.699Z,18.96
2023-04-02T02:57:34.816Z,18.96
2023-04-02T02:58:34.837Z,18.96
2023-04-02T02:59:34.902Z,18.96
2023-04-02T03:00:34.961Z,18.97
2023-04-02T03:01:35.013Z,18.97
2023-04-02T03:02:35.152Z,18.96
2023-04-02T03:03:35.212Z,18.96
2023-04-02T03:04:35.179Z,18.96
2023-04-02T03:05:35.342Z,18.97
2023-04-02T03:06:35.316Z,18.96
2023-04-02T03:07:35.359Z,18.96
2023-04-02T03:08:35.425Z,18.96
2023-04-02T03:09:35.479Z,18.96
2023-04-02T03:10:35.558Z,18.96
2023-04-02T03:11:35.613Z,18.96
2023-04-02T03:12:35.680Z,18.96
2023-04-02T03:13:35.846Z,18.96
2023-04-02T03:14:35.805Z,18.96
2023-04-02T03:15:36.100Z,18.96
2023-04-02T03:16:35.902Z,18.95
2023-04-02T03:17:35.982Z,18.95
2023-04-02T03:18:36.035Z,18.95
2023-04-02T03:19:36.087Z,18.94
2023-04-02T03:20:36.143Z,18.94
2023-04-02T03:21:36.199Z,18.94
2023-04-02T03:22:36.255Z,18.94
2023-04-02T03:23:36.315Z,18.94
2023-04-02T03:24:36.362Z,18.94
2023-04-02T03:25:36.672Z,18.93
2023-04-02T03:26:36.466Z,18.94
2023-04-02T03:27:36.544Z,18.93
2023-04-02T03:28:36.592Z,18.93
2023-04-02T03:29:36.658Z,18.94
2023-04-02T03:30:36.710Z,18.94
2023-04-02T03:31:36.815Z,18.93
2023-04-02T03:32:36.850Z,18.93
2023-04-02T03:33:36.888Z,18.93
2023-04-02T03:34:36.946Z,18.93
2023-04-02T03:35:37.391Z,18.94
2023-04-02T03:36:37.066Z,18.92
2023-04-02T03:37:37.130Z,18.92
2023-04-02T03:38:37.181Z,18.92
2023-04-02T03:39:37.231Z,18.92
2023-04-02T03:40:37.283Z,18.92
2023-04-02T03:41:37.347Z,18.92
2023-04-02T03:42:37.411Z,18.91
2023-04-02T03:43:37.480Z,18.92
2023-04-02T03:44:37.540Z,18.92
2023-04-02T03:45:37.632Z,18.92
2023-04-02T03:46:37.674Z,18.92
2023-04-02T03:47:37.810Z,18.92
2023-04-02T03:48:37.779Z,18.92
2023-04-02T03:49:37.851Z,18.91
2023-04-02T03:50:37.922Z,18.92
2023-04-02T03:51:37.981Z,18.91
2023-04-02T03:52:38.027Z,18.91
2023-04-02T03:53:38.081Z,18.91
2023-04-02T03:54:38.141Z,18.91
2023-04-02T03:55:38.270Z,18.91
2023-04-02T03:56:38.268Z,18.91
2023-04-02T03:57:38.324Z,18.90
2023-04-02T03:58:38.381Z,18.90
2023-04-02T03:59:38.427Z,18.90
2023-04-02T04:00:38.495Z,18.90
2023-04-02T04:01:38.566Z,18.91
2023-04-02T04:02:38.634Z,18.91
2023-04-02T04:03:38.679Z,18.90
2023-04-02T04:04:38.704Z,18.90
2023-04-02T04:05:38.768Z,18.91
2023-04-02T04:06:38.826Z,18.90
2023-04-02T04:07:38.883Z,18.90
2023-04-02T04:08:38.943Z,18.90
2023-04-02T04:09:39.011Z,18.90
2023-04-02T04:10:39.068Z,18.90
2023-04-02T04:11:39.132Z,18.90
2023-04-02T04:12:39.196Z,18.90
2023-04-02T04:13:39.263Z,18.90
2023-04-02T04:14:39.317Z,18.90
2023-04-02T04:15:39.388Z,18.90
2023-04-02T04:16:39.506Z,18.90
2023-04-02T04:17:39.532Z,18.89
2023-04-02T04:18:39.569Z,18.89
2023-04-02T04:19:39.636Z,18.89
2023-04-02T04:20:39.704Z,18.88
2023-04-02T04:21:39.795Z,18.89
2023-04-02T04:22:39.827Z,18.88
2023-04-02T04:23:39.894Z,18.88
2023-04-02T04:24:39.960Z,18.88
2023-04-02T04:25:40.051Z,18.88
2023-04-02T04:26:40.095Z,18.88
2023-04-02T04:27:40.158Z,18.88
2023-04-02T04:28:40.225Z,18.88
2023-04-02T04:29:40.286Z,18.88
2023-04-02T04:30:40.351Z,18.87
2023-04-02T04:31:40.450Z,18.87
2023-04-02T04:32:40.511Z,18.86
2023-04-02T04:33:40.543Z,18.87
2023-04-02T04:34:40.602Z,18.87
2023-04-02T04:35:40.705Z,18.86
2023-04-02T04:36:40.732Z,18.86
2023-04-02T04:37:42.715Z,18.86
2023-04-02T04:38:40.871Z,18.87
2023-04-02T04:39:40.924Z,18.86
2023-04-02T04:40:40.993Z,18.86
2023-04-02T04:41:41.058Z,18.86
2023-04-02T04:42:41.125Z,18.86
2023-04-02T04:43:41.192Z,18.86
2023-04-02T04:44:41.249Z,18.86
2023-04-02T04:45:41.338Z,18.86
2023-04-02T04:46:41.383Z,18.86
2023-04-02T04:47:41.469Z,18.86
2023-04-02T04:48:41.508Z,18.85
2023-04-02T04:49:41.552Z,18.85
2023-04-02T04:50:41.625Z,18.85
2023-04-02T04:51:41.676Z,18.85
2023-04-02T04:52:41.760Z,18.84
2023-04-02T04:53:41.803Z,18.85
2023-04-02T04:54:41.853Z,18.85
2023-04-02T04:55:41.909Z,18.84
2023-04-02T04:56:41.979Z,18.85
2023-04-02T04:57:42.038Z,18.84
2023-04-02T04:58:42.109Z,18.85
2023-04-02T04:59:42.166Z,18.84
2023-04-02T05:00:42.213Z,18.84
2023-04-02T05:01:42.284Z,18.84
2023-04-02T05:02:42.393Z,18.84
2023-04-02T05:03:42.390Z,18.85
2023-04-02T05:04:42.502Z,18.84
2023-04-02T05:05:42.518Z,18.84
2023-04-02T05:06:42.598Z,18.84
2023-04-02T05:07:42.653Z,18.84
2023-04-02T05:08:42.717Z,18.84
2023-04-02T05:09:42.781Z,18.84
2023-04-02T05:10:42.838Z,18.84
2023-04-02T05:11:42.909Z,18.84
2023-04-02T05:12:42.970Z,18.84
2023-04-02T05:13:43.024Z,18.84
2023-04-02T05:14:43.085Z,18.83
2023-04-02T05:15:43.180Z,18.84
2023-04-02T05:16:43.217Z,18.85
2023-04-02T05:17:43.297Z,18.84
2023-04-02T05:18:43.358Z,18.84
2023-04-02T05:19:43.413Z,18.84
2023-04-02T05:20:43.492Z,18.84
2023-04-02T05:21:43.544Z,18.84
2023-04-02T05:22:43.606Z,18.84
2023-04-02T05:23:43.672Z,18.83
2023-04-02T05:24:43.748Z,18.84
2023-04-02T05:25:43.812Z,18.84
2023-04-02T05:26:43.885Z,18.84
2023-04-02T05:27:43.956Z,18.83
2023-04-02T05:28:44.074Z,18.84
2023-04-02T05:29:44.088Z,18.84
2023-04-02T05:30:44.150Z,18.84
2023-04-02T05:31:44.285Z,18.84
2023-04-02T05:32:44.354Z,18.84
2023-04-02T05:33:44.373Z,18.85
2023-04-02T05:34:44.413Z,18.85
2023-04-02T05:35:44.499Z,18.85
2023-04-02T05:36:44.543Z,18.86
2023-04-02T05:37:44.613Z,18.84
2023-04-02T05:38:44.683Z,18.85
2023-04-02T05:39:44.751Z,18.86
2023-04-02T05:40:44.820Z,18.86
2023-04-02T05:41:44.876Z,18.86
2023-04-02T05:42:44.939Z,18.86
2023-04-02T05:43:45.001Z,18.86
2023-04-02T05:44:45.057Z,18.87
2023-04-02T05:45:45.113Z,18.86
2023-04-02T05:46:45.215Z,18.86
2023-04-02T05:47:45.259Z,18.86
2023-04-02T05:48:45.303Z,18.86
2023-04-02T05:49:45.358Z,18.87
2023-04-02T05:50:45.431Z,18.87
2023-04-02T05:51:45.480Z,18.87
2023-04-02T05:52:45.540Z,18.87
2023-04-02T05:53:45.587Z,18.87
2023-04-02T05:54:45.650Z,18.86
2023-04-02T05:55:45.708Z,18.87
2023-04-02T05:56:45.774Z,18.87
2023-04-02T05:57:56.634Z,18.87
2023-04-02T05:58:46.944Z,18.87
2023-04-02T05:59:45.834Z,18.87
2023-04-02T06:00:45.837Z,18.87
2023-04-02T06:01:45.926Z,18.87
2023-04-02T06:02:45.866Z,18.87
2023-04-02T06:03:46.047Z,18.87
2023-04-02T06:04:45.834Z,18.87
2023-04-02T06:05:45.825Z,18.87
2023-04-02T06:06:45.827Z,18.88
2023-04-02T06:07:45.836Z,18.88
2023-04-02T06:08:45.843Z,18.87
2023-04-02T06:09:45.905Z,18.88
2023-04-02T06:10:45.958Z,18.88
2023-04-02T06:11:46.018Z,18.89
2023-04-02T06:12:46.099Z,18.88
2023-04-02T06:13:46.142Z,18.88
2023-04-02T06:14:46.197Z,18.88
2023-04-02T06:15:47.749Z,18.88
2023-04-02T06:16:46.358Z,18.88
2023-04-02T06:17:46.386Z,18.88
2023-04-02T06:18:46.450Z,18.88
2023-04-02T06:19:46.504Z,18.88
2023-04-02T06:20:46.565Z,18.88
2023-04-02T06:21:46.637Z,18.88
2023-04-02T06:22:46.686Z,18.88
2023-04-02T06:23:46.747Z,18.89
2023-04-02T06:24:46.819Z,18.88
2023-04-02T06:25:46.870Z,18.88
2023-04-02T06:26:46.933Z,18.89
2023-04-02T06:27:46.996Z,18.89
2023-04-02T06:28:47.073Z,18.89
2023-04-02T06:29:47.114Z,18.89
2023-04-02T06:30:47.276Z,18.89
2023-04-02T06:31:49.304Z,18.89
2023-04-02T06:32:47.333Z,18.89
2023-04-02T06:33:47.364Z,18.89
2023-04-02T06:34:47.424Z,18.89
2023-04-02T06:35:47.562Z,18.89
2023-04-02T06:36:47.530Z,18.90
2023-04-02T06:37:47.599Z,18.90
2023-04-02T06:38:47.655Z,18.90
2023-04-02T06:39:47.720Z,18.90
2023-04-02T06:40:47.788Z,18.90
2023-04-02T06:41:47.848Z,18.90
2023-04-02T06:42:47.912Z,18.90
2023-04-02T06:43:47.962Z,18.90
2023-04-02T06:44:48.027Z,18.91
2023-04-02T06:45:48.114Z,18.92
2023-04-02T06:46:49.520Z,18.92
2023-04-02T06:47:48.280Z,18.93
2023-04-02T06:48:48.282Z,18.95
2023-04-02T06:49:48.349Z,18.96
2023-04-02T06:50:48.402Z,18.98
2023-04-02T06:51:48.464Z,18.99
2023-04-02T06:52:48.504Z,19.00
2023-04-02T06:53:48.554Z,19.03
2023-04-02T06:54:48.653Z,19.03
2023-04-02T06:55:48.650Z,19.03
2023-04-02T06:56:48.734Z,19.04
2023-04-02T06:57:48.828Z,19.06
2023-04-02T06:58:48.803Z,19.06
2023-04-02T06:59:48.848Z,19.07
2023-04-02T07:00:48.910Z,19.08
2023-04-02T07:01:49.089Z,19.09
2023-04-02T07:02:48.996Z,19.10
2023-04-02T07:03:49.031Z,19.10
2023-04-02T07:04:49.126Z,19.11
2023-04-02T07:05:49.126Z,19.11
2023-04-02T07:06:49.171Z,19.12
2023-04-02T07:07:49.217Z,19.13
2023-04-02T07:08:49.287Z,19.13
2023-04-02T07:09:49.296Z,19.15
2023-04-02T07:10:49.341Z,19.15
2023-04-02T07:11:49.378Z,19.15
2023-04-02T07:12:49.440Z,19.16
2023-04-02T07:13:49.453Z,19.17
2023-04-02T07:14:49.506Z,19.17
2023-04-02T07:15:49.596Z,19.17
2023-04-02T07:16:49.561Z,19.18
2023-04-02T07:17:49.668Z,19.18
2023-04-02T07:18:49.663Z,19.18
2023-04-02T07:19:49.840Z,19.19
2023-04-02T07:20:50.362Z,19.19
2023-04-02T07:21:49.720Z,19.20
2023-04-02T07:22:49.741Z,19.20
2023-04-02T07:23:49.779Z,19.21
2023-04-02T07:24:50.338Z,19.21
2023-04-02T07:25:49.841Z,19.21
2023-04-02T07:26:49.867Z,19.21
2023-04-02T07:27:49.901Z,19.22
2023-04-02T07:28:49.926Z,19.21
2023-04-02T07:29:49.968Z,19.22
2023-04-02T07:30:49.978Z,19.23
2023-04-02T07:31:50.101Z,19.22
2023-04-02T07:32:50.111Z,19.23
2023-04-02T07:33:50.095Z,19.23
2023-04-02T07:34:50.105Z,19.23
2023-04-02T07:35:50.167Z,19.24
2023-04-02T07:36:50.829Z,19.24
2023-04-02T07:37:50.200Z,19.24
2023-04-02T07:38:50.231Z,19.24
2023-04-02T07:39:50.264Z,19.25
2023-04-02T07:40:50.284Z,19.25
2023-04-02T07:41:50.319Z,19.26
2023-04-02T07:42:50.347Z,19.26
2023-04-02T07:43:50.382Z,19.27
2023-04-02T07:44:50.410Z,19.28
2023-04-02T07:45:50.434Z,19.28
2023-04-02T07:46:50.516Z,19.28
2023-04-02T07:47:50.517Z,19.29
2023-04-02T07:48:50.511Z,19.29
2023-04-02T07:49:50.538Z,19.29
2023-04-02T07:50:50.554Z,19.29
2023-04-02T07:51:50.578Z,19.30
2023-04-02T07:52:50.632Z,19.31
2023-04-02T07:53:50.678Z,19.31
2023-04-02T07:54:50.671Z,19.30
2023-04-02T07:55:50.696Z,19.30
2023-04-02T07:56:50.805Z,19.29
2023-04-02T07:57:50.772Z,19.30
2023-04-02T07:58:50.800Z,19.31
2023-04-02T07:59:50.803Z,19.31
2023-04-02T08:00:50.827Z,19.32
2023-04-02T08:01:50.858Z,19.32
2023-04-02T08:02:51.022Z,19.33
2023-04-02T08:03:53.092Z,19.33
2023-04-02T08:04:50.887Z,19.33
2023-04-02T08:05:50.880Z,19.34
2023-04-02T08:06:50.884Z,19.34
2023-04-02T08:07:50.867Z,19.35
2023-04-02T08:08:50.855Z,19.35
2023-04-02T08:09:50.846Z,19.35
2023-04-02T08:10:50.843Z,19.35
2023-04-02T08:11:50.834Z,19.36
2023-04-02T08:12:50.820Z,19.36
2023-04-02T08:13:50.806Z,19.34
2023-04-02T08:14:50.809Z,19.34
2023-04-02T08:15:50.800Z,19.34
2023-04-02T08:16:50.826Z,19.33
2023-04-02T08:17:50.796Z,19.33
2023-04-02T08:18:50.776Z,19.33
2023-04-02T08:19:55.189Z,19.33
2023-04-02T08:20:50.756Z,19.32
2023-04-02T08:21:50.771Z,19.32
2023-04-02T08:22:50.741Z,19.33
2023-04-02T08:23:50.729Z,19.33
2023-04-02T08:24:50.718Z,19.32
2023-04-02T08:25:50.695Z,19.33
2023-04-02T08:26:50.685Z,19.33
2023-04-02T08:27:50.675Z,19.33
2023-04-02T08:28:50.686Z,19.33
2023-04-02T08:29:50.663Z,19.33
2023-04-02T08:30:50.647Z,19.33
2023-04-02T08:31:50.647Z,19.32
2023-04-02T08:32:50.673Z,19.32
2023-04-02T08:33:50.605Z,19.32
2023-04-02T08:34:50.585Z,19.32
2023-04-02T08:35:50.685Z,19.32
2023-04-02T08:36:50.555Z,19.32
2023-04-02T08:37:50.548Z,19.32
2023-04-02T08:38:50.534Z,19.32
2023-04-02T08:39:50.516Z,19.32
2023-04-02T08:40:50.507Z,19.32
2023-04-02T08:41:50.514Z,19.32
2023-04-02T08:42:50.487Z,19.32
2023-04-02T08:43:50.482Z,19.31
2023-04-02T08:44:50.472Z,19.31
2023-04-02T08:45:50.500Z,19.32
2023-04-02T08:46:50.480Z,19.31
2023-04-02T08:47:50.582Z,19.31
2023-04-02T08:48:50.536Z,19.31
2023-04-02T08:49:50.556Z,19.32
2023-04-02T08:50:50.586Z,19.32
2023-04-02T08:51:50.608Z,19.32
2023-04-02T08:52:50.632Z,19.32
2023-04-02T08:53:50.661Z,19.33
2023-04-02T08:54:50.672Z,19.34
2023-04-02T08:55:50.712Z,19.33
2023-04-02T08:56:50.722Z,19.33
2023-04-02T08:57:50.763Z,19.34
2023-04-02T08:58:50.772Z,19.34
2023-04-02T08:59:50.801Z,19.34
2023-04-02T09:00:50.833Z,19.34
2023-04-02T09:01:50.893Z,19.34
2023-04-02T09:02:50.930Z,19.35
2023-04-02T09:03:50.900Z,19.34
2023-04-02T09:04:51.008Z,19.35
2023-04-02T09:05:50.968Z,19.34
2023-04-02T09:06:50.989Z,19.36
2023-04-02T09:07:51.005Z,19.37
2023-04-02T09:08:51.027Z,19.38
2023-04-02T09:09:51.040Z,19.38
2023-04-02T09:10:51.055Z,19.38
2023-04-02T09:11:51.071Z,19.38
2023-04-02T09:12:51.092Z,19.38
2023-04-02T09:13:51.104Z,19.38
2023-04-02T09:14:51.122Z,19.39
2023-04-02T09:15:51.155Z,19.40
2023-04-02T09:16:51.164Z,19.40
2023-04-02T09:17:54.391Z,19.40
2023-04-02T09:18:51.170Z,19.39
2023-04-02T09:19:51.172Z,19.39
2023-04-02T09:20:51.176Z,19.41
2023-04-02T09:21:51.166Z,19.40
2023-04-02T09:22:51.166Z,19.40
2023-04-02T09:23:51.170Z,19.40
2023-04-02T09:24:51.161Z,19.41
2023-04-02T09:26:02.976Z,19.43
2023-04-02T09:26:52.159Z,19.42
2023-04-02T09:27:51.159Z,19.43
2023-04-02T09:28:51.147Z,19.45
2023-04-02T09:29:51.136Z,19.45
2023-04-02T09:30:51.127Z,19.46
2023-04-02T09:31:51.195Z,19.47
2023-04-02T09:32:51.215Z,19.48
2023-04-02T09:33:51.129Z,19.48
2023-04-02T09:34:51.170Z,19.48
2023-04-02T09:35:52.176Z,19.48
2023-04-02T09:36:51.134Z,19.49
2023-04-02T09:37:51.108Z,19.50
2023-04-02T09:38:51.089Z,19.50
2023-04-02T09:39:51.086Z,19.51
2023-04-02T09:40:51.111Z,19.51
2023-04-02T09:42:04.604Z,19.51
2023-04-02T09:42:52.081Z,19.49
2023-04-02T09:43:51.081Z,19.49
2023-04-02T09:44:51.089Z,19.47
2023-04-02T09:45:51.074Z,19.46
2023-04-02T09:46:51.088Z,19.45
2023-04-02T09:47:51.110Z,19.45
2023-04-02T09:48:51.056Z,19.45
2023-04-02T09:49:51.130Z,19.45
2023-04-02T09:50:51.052Z,19.44
2023-04-02T09:51:51.040Z,19.44
2023-04-02T09:52:51.027Z,19.44
2023-04-02T09:53:51.028Z,19.44
2023-04-02T09:54:51.037Z,19.44
2023-04-02T09:55:51.027Z,19.43
2023-04-02T09:56:51.083Z,19.43
2023-04-02T09:57:51.037Z,19.44
2023-04-02T09:58:51.051Z,19.43
2023-04-02T09:59:51.040Z,19.43
2023-04-02T10:00:51.064Z,19.43
2023-04-02T10:01:51.041Z,19.43
2023-04-02T10:02:51.077Z,19.43
2023-04-02T10:03:51.099Z,19.43
2023-04-02T10:04:51.084Z,19.43
2023-04-02T10:05:51.048Z,19.43
2023-04-02T10:06:51.057Z,19.44
2023-04-02T10:07:51.059Z,19.44
2023-04-02T10:08:51.050Z,19.43
2023-04-02T10:09:51.072Z,19.44
2023-04-02T10:10:51.062Z,19.44
2023-04-02T10:11:51.092Z,19.44
2023-04-02T10:12:51.059Z,19.45
2023-04-02T10:13:51.063Z,19.44
2023-04-02T10:14:51.081Z,19.45
2023-04-02T10:15:51.081Z,19.44
2023-04-02T10:16:51.104Z,19.45
2023-04-02T10:17:51.121Z,19.45
2023-04-02T10:18:51.085Z,19.45
2023-04-02T10:19:51.086Z,19.45
2023-04-02T10:20:51.654Z,19.44
2023-04-02T10:21:51.078Z,19.45
2023-04-02T10:22:51.075Z,19.45
2023-04-02T10:23:51.083Z,19.45
2023-04-02T10:24:51.081Z,19.45
2023-04-02T10:25:51.081Z,19.46
2023-04-02T10:26:51.088Z,19.45
2023-04-02T10:27:51.111Z,19.46
2023-04-02T10:28:51.131Z,19.46
2023-04-02T10:29:51.137Z,19.46
2023-04-02T10:30:51.145Z,19.46
2023-04-02T10:31:51.154Z,19.46
2023-04-02T10:32:51.206Z,19.47
2023-04-02T10:33:51.204Z,19.47
2023-04-02T10:34:51.232Z,19.47
2023-04-02T10:35:51.278Z,19.47
2023-04-02T10:36:51.219Z,19.47
2023-04-02T10:37:51.225Z,19.47
2023-04-02T10:38:51.271Z,19.48
2023-04-02T10:39:51.242Z,19.47
2023-04-02T10:40:51.258Z,19.47
2023-04-02T10:41:51.275Z,19.48
2023-04-02T10:42:51.282Z,19.47
2023-04-02T10:43:51.284Z,19.47
2023-04-02T10:44:51.289Z,19.47
2023-04-02T10:45:51.341Z,19.48
2023-04-02T10:46:51.326Z,19.47
2023-04-02T10:47:51.373Z,19.47
2023-04-02T10:48:51.344Z,19.47
2023-04-02T10:49:51.376Z,19.47
2023-04-02T10:50:51.372Z,19.46
2023-04-02T10:51:51.375Z,19.46
2023-04-02T10:52:51.382Z,19.46
2023-04-02T10:53:51.393Z,19.46
2023-04-02T10:54:51.410Z,19.47
2023-04-02T10:55:51.422Z,19.46
2023-04-02T10:56:51.548Z,19.47
2023-04-02T10:57:51.448Z,19.46
2023-04-02T10:58:51.454Z,19.47
2023-04-02T10:59:51.470Z,19.46
2023-04-02T11:00:51.483Z,19.47
2023-04-02T11:01:51.627Z,19.46
2023-04-02T11:02:51.549Z,19.47
2023-04-02T11:03:51.616Z,19.47
2023-04-02T11:04:51.509Z,19.47
2023-04-02T11:05:51.521Z,19.47
2023-04-02T11:06:54.299Z,19.48
2023-04-02T11:07:52.534Z,19.48
2023-04-02T11:08:51.534Z,19.49
2023-04-02T11:09:51.538Z,19.50
2023-04-02T11:10:51.541Z,19.49
2023-04-02T11:11:51.538Z,19.49
2023-04-02T11:12:51.544Z,19.50
2023-04-02T11:13:51.552Z,19.50
2023-04-02T11:14:51.538Z,19.50
2023-04-02T11:15:51.608Z,19.50
2023-04-02T11:16:51.541Z,19.50
2023-04-02T11:17:51.624Z,19.50
2023-04-02T11:18:51.540Z,19.50
2023-04-02T11:19:51.555Z,19.51
2023-04-02T11:20:51.532Z,19.51
2023-04-02T11:22:51.531Z,19.51
2023-04-02T11:23:51.529Z,19.51
2023-04-02T11:24:51.555Z,19.52
2023-04-02T11:25:51.543Z,19.52
2023-04-02T11:26:51.532Z,19.52
2023-04-02T11:27:51.533Z,19.52
2023-04-02T11:28:51.531Z,19.52
2023-04-02T11:29:51.537Z,19.52
2023-04-02T11:30:51.528Z,19.52
2023-04-02T11:31:51.581Z,19.53
2023-04-02T11:32:51.578Z,19.53
2023-04-02T11:33:51.532Z,19.53
2023-04-02T11:34:59.506Z,19.53
2023-04-02T11:35:52.584Z,19.53
2023-04-02T11:36:51.523Z,19.53
2023-04-02T11:37:51.538Z,19.54
2023-04-02T11:38:52.464Z,19.54
2023-04-02T11:39:51.546Z,19.53
2023-04-02T11:40:51.545Z,19.53
2023-04-02T11:41:51.521Z,19.54
2023-04-02T11:42:51.516Z,19.55
2023-04-02T11:43:51.510Z,19.54
2023-04-02T11:44:51.513Z,19.55
2023-04-02T11:45:53.182Z,19.54
2023-04-02T11:46:51.588Z,19.55
2023-04-02T11:47:51.549Z,19.55
2023-04-02T11:48:51.500Z,19.55
2023-04-02T11:49:51.501Z,19.55
2023-04-02T11:50:51.493Z,19.55
2023-04-02T11:51:56.599Z,19.55
2023-04-02T11:52:52.488Z,19.55
2023-04-02T11:53:51.491Z,19.55
2023-04-02T11:54:51.500Z,19.56
2023-04-02T11:55:51.503Z,19.56
2023-04-02T11:56:51.517Z,19.56
2023-04-02T11:57:51.497Z,19.56
2023-04-02T11:58:51.499Z,19.56
2023-04-02T11:59:51.484Z,19.56
2023-04-02T12:00:51.487Z,19.57
2023-04-02T12:01:51.538Z,19.57
2023-04-02T12:02:51.533Z,19.57
2023-04-02T12:03:51.488Z,19.57
2023-04-02T12:04:51.483Z,19.57
2023-04-02T12:05:51.479Z,19.57
2023-04-02T12:06:51.464Z,19.57
2023-04-02T12:07:51.459Z,19.57
2023-04-02T12:08:57.596Z,19.57
2023-04-02T12:09:52.457Z,19.57
2023-04-02T12:10:51.455Z,19.57
2023-04-02T12:11:52.159Z,19.57
2023-04-02T12:12:51.437Z,19.57
2023-04-02T12:13:51.449Z,19.58
2023-04-02T12:14:51.433Z,19.58
2023-04-02T12:15:51.442Z,19.57
2023-04-02T12:16:51.463Z,19.57
2023-04-02T12:17:51.516Z,19.57
2023-04-02T12:18:51.417Z,19.57
2023-04-02T12:19:51.415Z,19.57
2023-04-02T12:20:51.409Z,19.56
2023-04-02T12:21:51.405Z,19.57
2023-04-02T12:22:51.410Z,19.56
2023-04-02T12:23:51.400Z,19.56
2023-04-02T12:24:51.405Z,19.56
2023-04-02T12:25:51.403Z,19.56
2023-04-02T12:26:51.397Z,19.56
2023-04-02T12:27:51.406Z,19.56
2023-04-02T12:28:51.410Z,19.56
2023-04-02T12:29:51.396Z,19.56
2023-04-02T12:30:51.503Z,19.57
2023-04-02T12:31:51.400Z,19.57
2023-04-02T12:32:51.405Z,19.56
2023-04-02T12:33:51.395Z,19.56
2023-04-02T12:34:51.383Z,19.56
2023-04-02T12:35:51.396Z,19.56
2023-04-02T12:36:51.351Z,19.56
2023-04-02T12:37:51.353Z,19.56
2023-04-02T12:38:51.353Z,19.56
2023-04-02T12:39:51.356Z,19.56
2023-04-02T12:40:51.355Z,19.56
2023-04-02T12:41:51.377Z,19.56
2023-04-02T12:42:51.361Z,19.56
2023-04-02T12:43:51.349Z,19.56
2023-04-02T12:44:51.358Z,19.56
2023-04-02T12:45:51.366Z,19.56
2023-04-02T12:46:51.350Z,19.55
2023-04-02T12:47:51.338Z,19.56
2023-04-02T12:48:51.327Z,19.56
2023-04-02T12:49:51.320Z,19.55
2023-04-02T12:50:51.376Z,19.55
2023-04-02T12:51:51.328Z,19.55
2023-04-02T12:52:51.320Z,19.55
2023-04-02T12:53:51.336Z,19.55